sensor_id;sensor_type;location;lat;lon;timestamp;P1;durP1;ratioP1;P2;durP2;ratioP2
43877;SDS011;29815;48.184;11.268;2023-02-28T00:00:49;4.80;;;2.97;;
43877;SDS011;29815;48.184;11.268;2023-02-28T00:03:19;7.15;;;3.55;;
43877;SDS011;29815;48.184;11.268;2023-02-28T00:05:49;4.50;;;3.13;;
43877;SDS011;29815;48.184;11.268;2023-02-28T00:08:18;6.22;;;3.47;;
43877;SDS011;29815;48.184;11.268;2023-02-28T00:10:48;5.90;;;3.60;;
43877;SDS011;29815;48.184;11.268;2023-02-28T00:13:17;3.72;;;3.30;;
43877;SDS011;29815;48.184;11.268;2023-02-28T00:15:48;5.75;;;3.42;;
43877;SDS011;29815;48.184;11.268;2023-02-28T00:18:29;4.47;;;3.05;;
43877;SDS011;29815;48.184;11.268;2023-02-28T00:20:58;5.90;;;3.20;;
43877;SDS011;29815;48.184;11.268;2023-02-28T00:23:28;6.40;;;3.40;;
43877;SDS011;29815;48.184;11.268;2023-02-28T00:25:58;7.07;;;3.53;;
43877;SDS011;29815;48.184;11.268;2023-02-28T00:28:27;6.35;;;3.60;;
43877;SDS011;29815;48.184;11.268;2023-02-28T00:31:00;4.97;;;3.20;;
43877;SDS011;29815;48.184;11.268;2023-02-28T00:33:30;5.18;;;3.80;;
43877;SDS011;29815;48.184;11.268;2023-02-28T00:36:05;5.40;;;3.63;;
43877;SDS011;29815;48.184;11.268;2023-02-28T00:38:37;4.60;;;3.47;;
43877;SDS011;29815;48.184;11.268;2023-02-28T00:41:09;5.45;;;3.67;;
43877;SDS011;29815;48.184;11.268;2023-02-28T00:43:39;4.43;;;3.17;;
43877;SDS011;29815;48.184;11.268;2023-02-28T00:46:12;5.40;;;3.63;;
43877;SDS011;29815;48.184;11.268;2023-02-28T00:48:41;4.93;;;3.75;;
43877;SDS011;29815;48.184;11.268;2023-02-28T00:51:11;5.60;;;3.83;;
43877;SDS011;29815;48.184;11.268;2023-02-28T00:53:41;6.82;;;3.50;;
43877;SDS011;29815;48.184;11.268;2023-02-28T00:56:10;4.03;;;3.03;;
43877;SDS011;29815;48.184;11.268;2023-02-28T00:58:40;6.28;;;3.75;;
43877;SDS011;29815;48.184;11.268;2023-02-28T01:01:11;5.13;;;3.40;;
43877;SDS011;29815;48.184;11.268;2023-02-28T01:03:42;7.25;;;3.72;;
43877;SDS011;29815;48.184;11.268;2023-02-28T01:06:11;9.35;;;4.60;;
43877;SDS011;29815;48.184;11.268;2023-02-28T01:08:40;4.85;;;3.50;;
43877;SDS011;29815;48.184;11.268;2023-02-28T01:11:11;7.00;;;4.18;;
43877;SDS011;29815;48.184;11.268;2023-02-28T01:13:45;6.45;;;4.47;;
43877;SDS011;29815;48.184;11.268;2023-02-28T01:16:16;9.73;;;4.55;;
43877;SDS011;29815;48.184;11.268;2023-02-28T01:18:46;7.60;;;4.82;;
43877;SDS011;29815;48.184;11.268;2023-02-28T01:21:18;6.20;;;3.65;;
43877;SDS011;29815;48.184;11.268;2023-02-28T01:23:50;5.78;;;3.80;;
43877;SDS011;29815;48.184;11.268;2023-02-28T01:26:21;5.25;;;4.07;;
43877;SDS011;29815;48.184;11.268;2023-02-28T01:28:51;5.93;;;3.90;;
43877;SDS011;29815;48.184;11.268;2023-02-28T01:31:23;5.22;;;3.35;;
43877;SDS011;29815;48.184;11.268;2023-02-28T01:33:53;5.13;;;3.70;;
43877;SDS011;29815;48.184;11.268;2023-02-28T01:36:23;5.22;;;3.50;;
43877;SDS011;29815;48.184;11.268;2023-02-28T01:38:55;8.93;;;3.60;;
43877;SDS011;29815;48.184;11.268;2023-02-28T01:41:27;4.72;;;3.40;;
43877;SDS011;29815;48.184;11.268;2023-02-28T01:44:02;6.75;;;4.25;;
43877;SDS011;29815;48.184;11.268;2023-02-28T01:46:36;5.35;;;4.13;;
43877;SDS011;29815;48.184;11.268;2023-02-28T01:49:06;6.20;;;4.15;;
43877;SDS011;29815;48.184;11.268;2023-02-28T01:51:43;5.30;;;3.75;;
43877;SDS011;29815;48.184;11.268;2023-02-28T01:54:19;6.95;;;3.50;;
43877;SDS011;29815;48.184;11.268;2023-02-28T01:56:54;8.43;;;3.58;;
43877;SDS011;29815;48.184;11.268;2023-02-28T01:59:30;6.50;;;4.15;;
43877;SDS011;29815;48.184;11.268;2023-02-28T02:02:09;7.05;;;4.50;;
43877;SDS011;29815;48.184;11.268;2023-02-28T02:04:40;4.63;;;3.67;;
43877;SDS011;29815;48.184;11.268;2023-02-28T02:07:20;6.25;;;3.47;;
43877;SDS011;29815;48.184;11.268;2023-02-28T02:09:58;5.68;;;3.83;;
43877;SDS011;29815;48.184;11.268;2023-02-28T02:12:37;5.30;;;3.55;;
43877;SDS011;29815;48.184;11.268;2023-02-28T02:15:55;7.43;;;3.65;;
43877;SDS011;29815;48.184;11.268;2023-02-28T02:18:40;7.63;;;3.90;;
43877;SDS011;29815;48.184;11.268;2023-02-28T02:25:06;7.53;;;4.90;;
43877;SDS011;29815;48.184;11.268;2023-02-28T02:31:20;5.45;;;2.67;;
43877;SDS011;29815;48.184;11.268;2023-02-28T02:34:26;5.72;;;3.55;;
43877;SDS011;29815;48.184;11.268;2023-02-28T02:37:13;6.25;;;4.50;;
43877;SDS011;29815;48.184;11.268;2023-02-28T02:39:59;8.68;;;4.07;;
43877;SDS011;29815;48.184;11.268;2023-02-28T02:42:39;5.47;;;3.90;;
43877;SDS011;29815;48.184;11.268;2023-02-28T02:45:21;6.75;;;4.32;;
43877;SDS011;29815;48.184;11.268;2023-02-28T02:47:56;4.68;;;3.50;;
43877;SDS011;29815;48.184;11.268;2023-02-28T02:50:31;8.45;;;3.92;;
43877;SDS011;29815;48.184;11.268;2023-02-28T02:53:07;7.45;;;4.85;;
43877;SDS011;29815;48.184;11.268;2023-02-28T02:55:40;6.40;;;4.05;;
43877;SDS011;29815;48.184;11.268;2023-02-28T02:58:16;7.57;;;4.38;;
43877;SDS011;29815;48.184;11.268;2023-02-28T03:00:52;4.40;;;3.60;;
43877;SDS011;29815;48.184;11.268;2023-02-28T03:03:26;7.32;;;4.18;;
43877;SDS011;29815;48.184;11.268;2023-02-28T03:06:00;5.95;;;3.72;;
43877;SDS011;29815;48.184;11.268;2023-02-28T03:08:33;7.65;;;4.72;;
43877;SDS011;29815;48.184;11.268;2023-02-28T03:11:06;6.63;;;4.07;;
43877;SDS011;29815;48.184;11.268;2023-02-28T03:13:54;6.45;;;4.45;;
43877;SDS011;29815;48.184;11.268;2023-02-28T03:19:54;6.88;;;4.75;;
43877;SDS011;29815;48.184;11.268;2023-02-28T03:22:40;6.57;;;4.30;;
43877;SDS011;29815;48.184;11.268;2023-02-28T03:25:29;7.65;;;4.88;;
43877;SDS011;29815;48.184;11.268;2023-02-28T03:28:08;9.82;;;5.13;;
43877;SDS011;29815;48.184;11.268;2023-02-28T03:30:46;6.43;;;4.63;;
43877;SDS011;29815;48.184;11.268;2023-02-28T03:33:21;6.68;;;4.40;;
43877;SDS011;29815;48.184;11.268;2023-02-28T03:35:57;9.73;;;5.10;;
43877;SDS011;29815;48.184;11.268;2023-02-28T03:38:35;6.85;;;4.18;;
43877;SDS011;29815;48.184;11.268;2023-02-28T03:41:10;8.25;;;4.47;;
43877;SDS011;29815;48.184;11.268;2023-02-28T03:43:47;6.22;;;4.65;;
43877;SDS011;29815;48.184;11.268;2023-02-28T03:46:22;8.30;;;5.25;;
43877;SDS011;29815;48.184;11.268;2023-02-28T03:48:57;10.68;;;6.10;;
43877;SDS011;29815;48.184;11.268;2023-02-28T03:51:36;8.75;;;5.00;;
43877;SDS011;29815;48.184;11.268;2023-02-28T03:54:11;8.90;;;5.00;;
43877;SDS011;29815;48.184;11.268;2023-02-28T03:56:47;7.85;;;4.72;;
43877;SDS011;29815;48.184;11.268;2023-02-28T03:59:25;6.97;;;4.72;;
43877;SDS011;29815;48.184;11.268;2023-02-28T04:02:00;8.68;;;4.82;;
43877;SDS011;29815;48.184;11.268;2023-02-28T04:04:30;9.15;;;5.00;;
43877;SDS011;29815;48.184;11.268;2023-02-28T04:07:01;7.97;;;5.47;;
43877;SDS011;29815;48.184;11.268;2023-02-28T04:09:36;10.02;;;5.47;;
43877;SDS011;29815;48.184;11.268;2023-02-28T04:12:06;7.45;;;4.88;;
43877;SDS011;29815;48.184;11.268;2023-02-28T04:14:36;10.63;;;5.63;;
43877;SDS011;29815;48.184;11.268;2023-02-28T04:17:06;8.35;;;5.22;;
43877;SDS011;29815;48.184;11.268;2023-02-28T04:19:35;8.43;;;5.93;;
43877;SDS011;29815;48.184;11.268;2023-02-28T04:22:05;8.00;;;6.22;;
43877;SDS011;29815;48.184;11.268;2023-02-28T04:24:37;8.18;;;6.22;;
43877;SDS011;29815;48.184;11.268;2023-02-28T04:27:08;9.93;;;6.43;;
43877;SDS011;29815;48.184;11.268;2023-02-28T04:29:38;8.73;;;6.20;;
43877;SDS011;29815;48.184;11.268;2023-02-28T04:32:12;8.40;;;6.00;;
43877;SDS011;29815;48.184;11.268;2023-02-28T04:34:42;8.88;;;5.97;;
43877;SDS011;29815;48.184;11.268;2023-02-28T04:37:11;9.57;;;6.40;;
43877;SDS011;29815;48.184;11.268;2023-02-28T04:39:42;8.02;;;5.53;;
43877;SDS011;29815;48.184;11.268;2023-02-28T04:42:12;9.00;;;6.13;;
43877;SDS011;29815;48.184;11.268;2023-02-28T04:44:42;10.73;;;6.38;;
43877;SDS011;29815;48.184;11.268;2023-02-28T04:47:11;10.30;;;6.88;;
43877;SDS011;29815;48.184;11.268;2023-02-28T04:49:41;10.98;;;6.32;;
43877;SDS011;29815;48.184;11.268;2023-02-28T04:52:10;8.60;;;6.68;;
43877;SDS011;29815;48.184;11.268;2023-02-28T04:54:41;10.90;;;6.43;;
43877;SDS011;29815;48.184;11.268;2023-02-28T04:57:11;9.35;;;6.22;;
43877;SDS011;29815;48.184;11.268;2023-02-28T04:59:41;11.70;;;6.28;;
43877;SDS011;29815;48.184;11.268;2023-02-28T05:02:11;10.07;;;7.05;;
43877;SDS011;29815;48.184;11.268;2023-02-28T05:04:40;12.45;;;6.78;;
43877;SDS011;29815;48.184;11.268;2023-02-28T05:07:10;10.95;;;8.15;;
43877;SDS011;29815;48.184;11.268;2023-02-28T05:09:39;14.45;;;7.72;;
43877;SDS011;29815;48.184;11.268;2023-02-28T05:12:10;10.82;;;6.50;;
43877;SDS011;29815;48.184;11.268;2023-02-28T05:14:40;10.35;;;6.53;;
43877;SDS011;29815;48.184;11.268;2023-02-28T05:17:10;10.38;;;7.55;;
43877;SDS011;29815;48.184;11.268;2023-02-28T05:19:39;10.52;;;7.47;;
43877;SDS011;29815;48.184;11.268;2023-02-28T05:22:12;10.32;;;7.28;;
43877;SDS011;29815;48.184;11.268;2023-02-28T05:24:45;12.98;;;7.75;;
43877;SDS011;29815;48.184;11.268;2023-02-28T05:27:14;12.65;;;8.15;;
43877;SDS011;29815;48.184;11.268;2023-02-28T05:29:43;11.82;;;8.02;;
43877;SDS011;29815;48.184;11.268;2023-02-28T05:32:14;9.38;;;7.60;;
43877;SDS011;29815;48.184;11.268;2023-02-28T05:34:44;12.25;;;8.30;;
43877;SDS011;29815;48.184;11.268;2023-02-28T05:37:13;11.55;;;9.27;;
43877;SDS011;29815;48.184;11.268;2023-02-28T05:39:45;11.35;;;7.85;;
43877;SDS011;29815;48.184;11.268;2023-02-28T05:42:14;13.02;;;8.18;;
43877;SDS011;29815;48.184;11.268;2023-02-28T05:44:44;13.23;;;7.72;;
43877;SDS011;29815;48.184;11.268;2023-02-28T05:47:14;12.48;;;8.82;;
43877;SDS011;29815;48.184;11.268;2023-02-28T05:49:44;11.90;;;8.50;;
43877;SDS011;29815;48.184;11.268;2023-02-28T05:52:14;12.35;;;8.18;;
43877;SDS011;29815;48.184;11.268;2023-02-28T05:54:45;13.43;;;8.10;;
43877;SDS011;29815;48.184;11.268;2023-02-28T05:57:15;14.50;;;9.70;;
43877;SDS011;29815;48.184;11.268;2023-02-28T05:59:51;11.75;;;8.00;;
43877;SDS011;29815;48.184;11.268;2023-02-28T06:02:20;13.05;;;8.45;;
43877;SDS011;29815;48.184;11.268;2023-02-28T06:04:50;12.82;;;9.00;;
43877;SDS011;29815;48.184;11.268;2023-02-28T06:07:19;14.20;;;9.35;;
43877;SDS011;29815;48.184;11.268;2023-02-28T06:09:51;16.05;;;10.48;;
43877;SDS011;29815;48.184;11.268;2023-02-28T06:12:20;15.48;;;9.68;;
43877;SDS011;29815;48.184;11.268;2023-02-28T06:14:50;15.43;;;9.90;;
43877;SDS011;29815;48.184;11.268;2023-02-28T06:17:19;12.55;;;8.73;;
43877;SDS011;29815;48.184;11.268;2023-02-28T06:19:49;12.18;;;9.07;;
43877;SDS011;29815;48.184;11.268;2023-02-28T06:22:18;14.52;;;10.70;;
43877;SDS011;29815;48.184;11.268;2023-02-28T06:24:48;14.95;;;9.90;;
43877;SDS011;29815;48.184;11.268;2023-02-28T06:27:19;13.90;;;9.25;;
43877;SDS011;29815;48.184;11.268;2023-02-28T06:29:53;15.32;;;9.05;;
43877;SDS011;29815;48.184;11.268;2023-02-28T06:32:24;15.68;;;9.85;;
43877;SDS011;29815;48.184;11.268;2023-02-28T06:34:54;14.45;;;9.60;;
43877;SDS011;29815;48.184;11.268;2023-02-28T06:37:25;14.45;;;9.55;;
43877;SDS011;29815;48.184;11.268;2023-02-28T06:39:54;13.80;;;9.05;;
43877;SDS011;29815;48.184;11.268;2023-02-28T06:42:26;12.85;;;9.32;;
43877;SDS011;29815;48.184;11.268;2023-02-28T06:44:58;14.73;;;9.90;;
43877;SDS011;29815;48.184;11.268;2023-02-28T06:47:30;15.70;;;9.50;;
43877;SDS011;29815;48.184;11.268;2023-02-28T06:50:00;14.63;;;10.77;;
43877;SDS011;29815;48.184;11.268;2023-02-28T06:52:30;15.70;;;10.48;;
43877;SDS011;29815;48.184;11.268;2023-02-28T06:55:00;19.40;;;11.43;;
43877;SDS011;29815;48.184;11.268;2023-02-28T06:57:32;15.68;;;9.98;;
43877;SDS011;29815;48.184;11.268;2023-02-28T07:00:05;16.08;;;11.75;;
43877;SDS011;29815;48.184;11.268;2023-02-28T07:02:41;16.77;;;10.80;;
43877;SDS011;29815;48.184;11.268;2023-02-28T07:05:11;16.35;;;10.93;;
43877;SDS011;29815;48.184;11.268;2023-02-28T07:07:41;20.30;;;11.45;;
43877;SDS011;29815;48.184;11.268;2023-02-28T07:10:12;16.35;;;11.60;;
43877;SDS011;29815;48.184;11.268;2023-02-28T07:12:48;17.90;;;11.80;;
43877;SDS011;29815;48.184;11.268;2023-02-28T07:15:18;16.38;;;10.85;;
43877;SDS011;29815;48.184;11.268;2023-02-28T07:17:48;17.25;;;12.65;;
43877;SDS011;29815;48.184;11.268;2023-02-28T07:20:18;15.90;;;12.77;;
43877;SDS011;29815;48.184;11.268;2023-02-28T07:22:48;14.35;;;10.48;;
43877;SDS011;29815;48.184;11.268;2023-02-28T07:25:23;18.73;;;12.27;;
43877;SDS011;29815;48.184;11.268;2023-02-28T07:27:57;14.35;;;11.10;;
43877;SDS011;29815;48.184;11.268;2023-02-28T07:30:27;16.75;;;11.82;;
43877;SDS011;29815;48.184;11.268;2023-02-28T07:32:57;20.63;;;12.88;;
43877;SDS011;29815;48.184;11.268;2023-02-28T07:35:26;17.48;;;12.40;;
43877;SDS011;29815;48.184;11.268;2023-02-28T07:37:56;17.77;;;12.38;;
43877;SDS011;29815;48.184;11.268;2023-02-28T07:40:27;17.55;;;12.65;;
43877;SDS011;29815;48.184;11.268;2023-02-28T07:42:58;23.45;;;13.98;;
43877;SDS011;29815;48.184;11.268;2023-02-28T07:45:28;20.17;;;13.45;;
43877;SDS011;29815;48.184;11.268;2023-02-28T07:48:01;23.67;;;11.95;;
43877;SDS011;29815;48.184;11.268;2023-02-28T07:50:31;14.45;;;10.52;;
43877;SDS011;29815;48.184;11.268;2023-02-28T07:53:02;21.05;;;13.45;;
43877;SDS011;29815;48.184;11.268;2023-02-28T07:55:31;19.02;;;12.63;;
43877;SDS011;29815;48.184;11.268;2023-02-28T07:58:02;18.60;;;13.15;;
43877;SDS011;29815;48.184;11.268;2023-02-28T08:00:32;19.27;;;12.23;;
43877;SDS011;29815;48.184;11.268;2023-02-28T08:03:02;18.52;;;13.55;;
43877;SDS011;29815;48.184;11.268;2023-02-28T08:05:32;16.65;;;11.63;;
43877;SDS011;29815;48.184;11.268;2023-02-28T08:08:01;22.23;;;13.45;;
43877;SDS011;29815;48.184;11.268;2023-02-28T08:10:31;19.58;;;13.80;;
43877;SDS011;29815;48.184;11.268;2023-02-28T08:13:01;18.70;;;13.38;;
43877;SDS011;29815;48.184;11.268;2023-02-28T08:15:32;20.00;;;14.55;;
43877;SDS011;29815;48.184;11.268;2023-02-28T08:18:02;22.15;;;14.88;;
43877;SDS011;29815;48.184;11.268;2023-02-28T08:20:33;18.70;;;12.05;;
43877;SDS011;29815;48.184;11.268;2023-02-28T08:23:03;21.63;;;14.05;;
43877;SDS011;29815;48.184;11.268;2023-02-28T08:25:33;20.48;;;13.10;;
43877;SDS011;29815;48.184;11.268;2023-02-28T08:28:06;17.85;;;12.90;;
43877;SDS011;29815;48.184;11.268;2023-02-28T08:30:36;23.13;;;13.90;;
43877;SDS011;29815;48.184;11.268;2023-02-28T08:33:08;21.48;;;14.30;;
43877;SDS011;29815;48.184;11.268;2023-02-28T08:35:39;18.85;;;13.32;;
43877;SDS011;29815;48.184;11.268;2023-02-28T08:38:08;22.42;;;14.18;;
43877;SDS011;29815;48.184;11.268;2023-02-28T08:40:38;22.38;;;14.38;;
43877;SDS011;29815;48.184;11.268;2023-02-28T08:43:10;18.45;;;13.30;;
43877;SDS011;29815;48.184;11.268;2023-02-28T08:45:40;21.27;;;13.32;;
43877;SDS011;29815;48.184;11.268;2023-02-28T08:48:10;18.88;;;13.60;;
43877;SDS011;29815;48.184;11.268;2023-02-28T08:50:42;20.77;;;13.75;;
43877;SDS011;29815;48.184;11.268;2023-02-28T08:53:22;19.75;;;14.48;;
43877;SDS011;29815;48.184;11.268;2023-02-28T08:55:56;17.92;;;12.82;;
43877;SDS011;29815;48.184;11.268;2023-02-28T08:58:29;21.73;;;15.30;;
43877;SDS011;29815;48.184;11.268;2023-02-28T09:00:58;19.90;;;13.60;;
43877;SDS011;29815;48.184;11.268;2023-02-28T09:03:29;21.17;;;14.27;;
43877;SDS011;29815;48.184;11.268;2023-02-28T09:05:59;21.35;;;15.90;;
43877;SDS011;29815;48.184;11.268;2023-02-28T09:08:29;26.85;;;15.05;;
43877;SDS011;29815;48.184;11.268;2023-02-28T09:10:59;20.27;;;14.60;;
43877;SDS011;29815;48.184;11.268;2023-02-28T09:13:31;20.00;;;13.32;;
43877;SDS011;29815;48.184;11.268;2023-02-28T09:16:02;19.98;;;14.90;;
43877;SDS011;29815;48.184;11.268;2023-02-28T09:18:36;18.90;;;14.13;;
43877;SDS011;29815;48.184;11.268;2023-02-28T09:21:07;22.02;;;15.05;;
43877;SDS011;29815;48.184;11.268;2023-02-28T09:23:41;17.73;;;13.45;;
43877;SDS011;29815;48.184;11.268;2023-02-28T09:26:13;21.13;;;13.95;;
43877;SDS011;29815;48.184;11.268;2023-02-28T09:28:45;17.80;;;13.02;;
43877;SDS011;29815;48.184;11.268;2023-02-28T09:31:16;20.88;;;14.18;;
43877;SDS011;29815;48.184;11.268;2023-02-28T09:33:51;19.85;;;14.40;;
43877;SDS011;29815;48.184;11.268;2023-02-28T09:36:25;18.13;;;13.88;;
43877;SDS011;29815;48.184;11.268;2023-02-28T09:39:10;19.88;;;13.82;;
43877;SDS011;29815;48.184;11.268;2023-02-28T09:41:44;19.67;;;14.50;;
43877;SDS011;29815;48.184;11.268;2023-02-28T09:44:22;23.67;;;14.80;;
43877;SDS011;29815;48.184;11.268;2023-02-28T09:47:01;17.52;;;14.52;;
43877;SDS011;29815;48.184;11.268;2023-02-28T09:49:42;20.98;;;14.20;;
43877;SDS011;29815;48.184;11.268;2023-02-28T09:52:17;20.83;;;15.10;;
43877;SDS011;29815;48.184;11.268;2023-02-28T09:54:51;21.20;;;14.45;;
43877;SDS011;29815;48.184;11.268;2023-02-28T09:57:25;20.05;;;14.75;;
43877;SDS011;29815;48.184;11.268;2023-02-28T10:00:10;18.92;;;13.43;;
43877;SDS011;29815;48.184;11.268;2023-02-28T10:02:53;16.85;;;13.65;;
43877;SDS011;29815;48.184;11.268;2023-02-28T10:05:56;20.17;;;13.95;;
43877;SDS011;29815;48.184;11.268;2023-02-28T10:08:36;23.05;;;13.55;;
43877;SDS011;29815;48.184;11.268;2023-02-28T10:11:15;16.80;;;12.50;;
43877;SDS011;29815;48.184;11.268;2023-02-28T10:13:50;18.40;;;12.48;;
43877;SDS011;29815;48.184;11.268;2023-02-28T10:16:31;18.95;;;14.00;;
43877;SDS011;29815;48.184;11.268;2023-02-28T10:19:09;19.40;;;13.00;;
43877;SDS011;29815;48.184;11.268;2023-02-28T10:21:49;18.52;;;12.15;;
43877;SDS011;29815;48.184;11.268;2023-02-28T10:24:28;18.80;;;13.85;;
43877;SDS011;29815;48.184;11.268;2023-02-28T10:27:12;20.50;;;13.23;;
43877;SDS011;29815;48.184;11.268;2023-02-28T10:29:46;19.52;;;14.52;;
43877;SDS011;29815;48.184;11.268;2023-02-28T10:32:22;17.42;;;13.32;;
43877;SDS011;29815;48.184;11.268;2023-02-28T10:34:58;18.58;;;13.10;;
43877;SDS011;29815;48.184;11.268;2023-02-28T10:37:40;16.52;;;13.38;;
43877;SDS011;29815;48.184;11.268;2023-02-28T10:40:26;20.00;;;13.20;;
43877;SDS011;29815;48.184;11.268;2023-02-28T10:43:03;17.48;;;12.90;;
43877;SDS011;29815;48.184;11.268;2023-02-28T10:45:52;18.00;;;12.43;;
43877;SDS011;29815;48.184;11.268;2023-02-28T10:48:32;15.90;;;12.30;;
43877;SDS011;29815;48.184;11.268;2023-02-28T10:51:07;22.73;;;13.93;;
43877;SDS011;29815;48.184;11.268;2023-02-28T10:53:45;19.05;;;13.10;;
43877;SDS011;29815;48.184;11.268;2023-02-28T10:56:29;14.00;;;11.48;;
43877;SDS011;29815;48.184;11.268;2023-02-28T10:59:02;17.85;;;12.88;;
43877;SDS011;29815;48.184;11.268;2023-02-28T11:01:55;16.05;;;12.48;;
43877;SDS011;29815;48.184;11.268;2023-02-28T11:04:35;18.70;;;13.45;;
43877;SDS011;29815;48.184;11.268;2023-02-28T11:07:17;15.55;;;11.90;;
43877;SDS011;29815;48.184;11.268;2023-02-28T11:09:52;18.40;;;12.38;;
43877;SDS011;29815;48.184;11.268;2023-02-28T11:12:25;16.08;;;12.07;;
43877;SDS011;29815;48.184;11.268;2023-02-28T11:15:18;18.30;;;12.82;;
43877;SDS011;29815;48.184;11.268;2023-02-28T11:17:55;16.75;;;13.52;;
43877;SDS011;29815;48.184;11.268;2023-02-28T11:20:31;16.85;;;12.52;;
43877;SDS011;29815;48.184;11.268;2023-02-28T11:23:03;18.27;;;14.25;;
43877;SDS011;29815;48.184;11.268;2023-02-28T11:25:40;20.52;;;13.63;;
43877;SDS011;29815;48.184;11.268;2023-02-28T11:28:25;16.95;;;13.40;;
43877;SDS011;29815;48.184;11.268;2023-02-28T11:31:01;19.88;;;13.80;;
43877;SDS011;29815;48.184;11.268;2023-02-28T11:33:45;17.23;;;12.52;;
43877;SDS011;29815;48.184;11.268;2023-02-28T11:36:20;20.67;;;12.15;;
43877;SDS011;29815;48.184;11.268;2023-02-28T11:38:54;19.25;;;12.85;;
43877;SDS011;29815;48.184;11.268;2023-02-28T11:41:32;18.02;;;13.73;;
43877;SDS011;29815;48.184;11.268;2023-02-28T11:44:39;18.70;;;12.73;;
43877;SDS011;29815;48.184;11.268;2023-02-28T11:47:28;17.38;;;12.15;;
43877;SDS011;29815;48.184;11.268;2023-02-28T11:50:12;18.17;;;12.95;;
43877;SDS011;29815;48.184;11.268;2023-02-28T11:53:29;16.50;;;12.55;;
43877;SDS011;29815;48.184;11.268;2023-02-28T11:56:23;16.77;;;13.38;;
43877;SDS011;29815;48.184;11.268;2023-02-28T11:59:03;15.77;;;12.10;;
43877;SDS011;29815;48.184;11.268;2023-02-28T12:02:18;16.27;;;11.95;;
43877;SDS011;29815;48.184;11.268;2023-02-28T12:05:01;17.42;;;13.98;;
43877;SDS011;29815;48.184;11.268;2023-02-28T12:07:55;17.67;;;12.75;;
43877;SDS011;29815;48.184;11.268;2023-02-28T12:10:57;18.00;;;11.77;;
43877;SDS011;29815;48.184;11.268;2023-02-28T12:13:43;18.50;;;13.00;;
43877;SDS011;29815;48.184;11.268;2023-02-28T12:16:29;15.93;;;12.70;;
43877;SDS011;29815;48.184;11.268;2023-02-28T12:19:19;22.08;;;12.00;;
43877;SDS011;29815;48.184;11.268;2023-02-28T12:22:05;20.48;;;14.68;;
43877;SDS011;29815;48.184;11.268;2023-02-28T12:25:01;15.95;;;11.80;;
43877;SDS011;29815;48.184;11.268;2023-02-28T12:28:32;15.32;;;11.35;;
43877;SDS011;29815;48.184;11.268;2023-02-28T12:31:09;16.88;;;12.80;;
43877;SDS011;29815;48.184;11.268;2023-02-28T12:33:47;15.82;;;12.13;;
43877;SDS011;29815;48.184;11.268;2023-02-28T12:36:25;16.20;;;12.00;;
43877;SDS011;29815;48.184;11.268;2023-02-28T12:38:56;19.30;;;13.43;;
43877;SDS011;29815;48.184;11.268;2023-02-28T12:41:36;16.20;;;11.55;;
43877;SDS011;29815;48.184;11.268;2023-02-28T12:44:14;13.80;;;11.25;;
43877;SDS011;29815;48.184;11.268;2023-02-28T12:46:50;15.73;;;12.43;;
43877;SDS011;29815;48.184;11.268;2023-02-28T12:49:25;16.50;;;12.50;;
43877;SDS011;29815;48.184;11.268;2023-02-28T12:52:03;16.40;;;12.05;;
43877;SDS011;29815;48.184;11.268;2023-02-28T12:54:40;18.13;;;13.40;;
43877;SDS011;29815;48.184;11.268;2023-02-28T12:57:25;15.02;;;11.35;;
43877;SDS011;29815;48.184;11.268;2023-02-28T13:00:09;21.92;;;12.23;;
43877;SDS011;29815;48.184;11.268;2023-02-28T13:02:56;15.90;;;12.63;;
43877;SDS011;29815;48.184;11.268;2023-02-28T13:06:05;16.05;;;12.43;;
43877;SDS011;29815;48.184;11.268;2023-02-28T13:09:04;13.45;;;10.85;;
43877;SDS011;29815;48.184;11.268;2023-02-28T13:11:39;15.38;;;11.20;;
43877;SDS011;29815;48.184;11.268;2023-02-28T13:14:20;15.45;;;11.05;;
43877;SDS011;29815;48.184;11.268;2023-02-28T13:17:02;14.77;;;11.20;;
43877;SDS011;29815;48.184;11.268;2023-02-28T13:19:41;14.40;;;11.77;;
43877;SDS011;29815;48.184;11.268;2023-02-28T13:22:18;15.60;;;11.32;;
43877;SDS011;29815;48.184;11.268;2023-02-28T13:38:32;13.95;;;11.05;;
43877;SDS011;29815;48.184;11.268;2023-02-28T13:44:13;14.52;;;11.05;;
43877;SDS011;29815;48.184;11.268;2023-02-28T13:50:14;16.65;;;11.23;;
43877;SDS011;29815;48.184;11.268;2023-02-28T13:52:54;15.02;;;11.73;;
43877;SDS011;29815;48.184;11.268;2023-02-28T13:56:10;15.40;;;11.98;;
43877;SDS011;29815;48.184;11.268;2023-02-28T13:58:59;13.88;;;10.40;;
43877;SDS011;29815;48.184;11.268;2023-02-28T14:01:51;15.98;;;10.95;;
43877;SDS011;29815;48.184;11.268;2023-02-28T14:05:01;14.18;;;10.75;;
43877;SDS011;29815;48.184;11.268;2023-02-28T14:07:37;14.85;;;10.68;;
43877;SDS011;29815;48.184;11.268;2023-02-28T14:16:16;13.85;;;10.20;;
43877;SDS011;29815;48.184;11.268;2023-02-28T14:18:51;14.13;;;11.02;;
43877;SDS011;29815;48.184;11.268;2023-02-28T14:21:28;13.07;;;10.35;;
43877;SDS011;29815;48.184;11.268;2023-02-28T14:24:16;12.18;;;9.32;;
43877;SDS011;29815;48.184;11.268;2023-02-28T14:27:22;14.18;;;10.65;;
43877;SDS011;29815;48.184;11.268;2023-02-28T14:30:15;12.48;;;10.45;;
43877;SDS011;29815;48.184;11.268;2023-02-28T14:33:42;15.33;;;12.87;;
43877;SDS011;29815;48.184;11.268;2023-02-28T14:39:06;13.45;;;10.45;;
43877;SDS011;29815;48.184;11.268;2023-02-28T14:41:42;14.35;;;10.98;;
43877;SDS011;29815;48.184;11.268;2023-02-28T15:39:03;12.20;;;9.57;;
43877;SDS011;29815;48.184;11.268;2023-02-28T15:42:09;14.95;;;11.55;;
43877;SDS011;29815;48.184;11.268;2023-02-28T15:44:39;13.48;;;10.13;;
43877;SDS011;29815;48.184;11.268;2023-02-28T15:47:14;12.30;;;10.77;;
43877;SDS011;29815;48.184;11.268;2023-02-28T15:49:48;14.05;;;10.35;;
43877;SDS011;29815;48.184;11.268;2023-02-28T15:52:22;12.05;;;9.95;;
43877;SDS011;29815;48.184;11.268;2023-02-28T15:55:04;13.90;;;11.75;;
43877;SDS011;29815;48.184;11.268;2023-02-28T15:57:40;11.77;;;9.98;;
43877;SDS011;29815;48.184;11.268;2023-02-28T16:00:10;16.92;;;11.02;;
43877;SDS011;29815;48.184;11.268;2023-02-28T16:02:47;13.70;;;10.48;;
43877;SDS011;29815;48.184;11.268;2023-02-28T16:05:20;13.70;;;10.40;;
43877;SDS011;29815;48.184;11.268;2023-02-28T16:07:58;11.05;;;9.60;;
43877;SDS011;29815;48.184;11.268;2023-02-28T16:10:36;15.73;;;11.90;;
43877;SDS011;29815;48.184;11.268;2023-02-28T16:13:06;14.43;;;10.70;;
43877;SDS011;29815;48.184;11.268;2023-02-28T16:15:42;16.05;;;10.73;;
43877;SDS011;29815;48.184;11.268;2023-02-28T16:18:13;15.65;;;11.75;;
43877;SDS011;29815;48.184;11.268;2023-02-28T16:20:42;14.98;;;11.30;;
43877;SDS011;29815;48.184;11.268;2023-02-28T16:23:18;15.50;;;11.27;;
43877;SDS011;29815;48.184;11.268;2023-02-28T16:25:49;13.20;;;10.02;;
43877;SDS011;29815;48.184;11.268;2023-02-28T16:28:19;14.70;;;10.82;;
43877;SDS011;29815;48.184;11.268;2023-02-28T16:30:57;17.90;;;13.48;;
43877;SDS011;29815;48.184;11.268;2023-02-28T16:33:30;17.92;;;13.15;;
43877;SDS011;29815;48.184;11.268;2023-02-28T16:36:00;15.13;;;11.98;;
43877;SDS011;29815;48.184;11.268;2023-02-28T16:41:27;21.45;;;14.63;;
43877;SDS011;29815;48.184;11.268;2023-02-28T16:43:58;27.42;;;17.27;;
43877;SDS011;29815;48.184;11.268;2023-02-28T16:46:30;20.67;;;15.45;;